Mount Holly, Vermont
Current Conditions -  °F | °C
As of 10:55 PM on Tuesday 25 Nov 2014 (Local Time) from KRUT Reporting Station
Broken Clouds Broken Clouds  
Wind Chill: 33°   Ceiling: 6000
Heat Index: 37°   Visibility: 10mi
Dew Point: 27°   Wind: 6mph
Humidity: 65%   Direction: 10°N
Pressure: 30.1"   Gusts: NA
Location:  43.45°N, 72.83°W
Report Text: KRUT 260355Z 01005KT 10SM BKN060 03/M03 A3010 RMK AO1
Loading
Personal Weather Stations






























Interactive Weather Map New forecast layout! Learn more

10-Day Weather Forecast

Advertisements
Track Severe Weather on mobile